Stolt Auk — 2HLY2 — position and weather

sailwx.info

Track history (hours):
 
Tides and Currents Weather Stations Pressure Air Temp Water Temp Dewpoint Dewpoint Depression Visibility Wind Speed Wind Dir Waves Ship Positions

Stolt Auk

Last reported at 2018-Jan-19 17:51 UTC. Time now 2018-Jan-20 03:47 UTC.
Position N 53°38' E 004°51'.

Length 100 m; draft 6.3 m.

Type: Ship (hazmat cat B). MMSI: 235104739.

Date/timePositionNaut miles runAvg speedWind from/ knotsBaromVisibWave heightAir tempDewpointWater temp
2018-Jan-19 17:51N 53°38' E 004°51'512.9
2018-Jan-19 17:26N 53°33' E 004°48'613.1
2018-Jan-19 16:59N 53°28' E 004°44'1112.8
2018-Jan-19 16:10N 53°18' E 004°36'1212.7
2018-Jan-19 15:15N 53°08' E 004°27'312.8
2018-Jan-19 15:00N 53°05' E 004°24'712.0
2018-Jan-19 14:27N 52°60' E 004°20'511.4
2018-Jan-19 14:00N 52°55' E 004°17'511.1
2018-Jan-19 13:30N 52°50' E 004°13'2511.4
2018-Jan-19 11:21N 52°32' E 003°45'511.0
2018-Jan-19 10:54N 52°28' E 003°40'510.7
2018-Jan-19 10:29N 52°24' E 003°36'510.6
2018-Jan-19 09:59N 52°20' E 003°32'510.7
2018-Jan-19 09:30N 52°15' E 003°30'510.7
2018-Jan-19 09:00N 52°10' E 003°27'3410.3
2018-Jan-19 05:39N 51°35' E 003°24'212.9
2018-Jan-19 05:30N 51°33' E 003°25'713.3
2018-Jan-19 05:00N 51°28' E 003°31'4 8.6
2018-Jan-19 04:31N 51°26' E 003°37'510.3
2018-Jan-19 04:00N 51°23' E 003°44'510.9
2018-Jan-19 03:31N 51°21' E 003°52'510.0
2018-Jan-19 03:01N 51°24' E 003°57'3 6.1
2018-Jan-19 02:31N 51°25' E 004°02'4 7.7
2018-Jan-19 02:01N 51°22' E 004°07'4 7.5
2018-Jan-19 01:31N 51°22' E 004°13'3 6.0
2018-Jan-19 01:01N 51°21' E 004°17'0 0.0
2018-Jan-19 00:31N 51°21' E 004°17'0 0.1
2018-Jan-19 00:01N 51°21' E 004°17'1 1.8
2018-Jan-18 23:30N 51°20' E 004°18'1 2.1
2018-Jan-18 23:00N 51°19' E 004°18'  
2018-Jan-12 02:21N 54°29' E 004°59'513.3
2018-Jan-12 02:00N 54°33' E 005°04'1013.4
2018-Jan-12 01:17N 54°41' E 005°13'413.5
2018-Jan-12 00:59N 54°44' E 005°17'713.6
2018-Jan-12 00:30N 54°50' E 005°23'713.7
2018-Jan-12 00:00N 54°55' E 005°30'713.7
2018-Jan-11 23:29N 55°01' E 005°37'713.7
2018-Jan-11 22:59N 55°07' E 005°44'613.6
2018-Jan-11 22:30N 55°12' E 005°50'713.5
2018-Jan-11 22:00N 55°18' E 005°56'713.4
2018-Jan-11 21:29N 55°24' E 006°02'713.4
2018-Jan-11 20:59N 55°30' E 006°08'713.4
2018-Jan-11 20:29N 55°35' E 006°16'713.4
2018-Jan-11 19:59N 55°40' E 006°23'613.5
2018-Jan-11 19:30N 55°46' E 006°30'713.5
2018-Jan-11 18:59N 55°51' E 006°37'713.6
2018-Jan-11 18:29N 55°57' E 006°43'713.6
2018-Jan-11 17:59N 56°03' E 006°50'613.6
2018-Jan-11 17:30N 56°08' E 006°57'713.6
2018-Jan-11 17:00N 56°14' E 007°04'713.5
2018-Jan-11 16:30N 56°19' E 007°11'713.4
2018-Jan-11 16:00N 56°25' E 007°17'713.2
2018-Jan-11 15:29N 56°30' E 007°24'713.1
2018-Jan-11 14:59N 56°36' E 007°32'612.6
2018-Jan-11 14:29N 56°41' E 007°39'712.5
2018-Jan-11 13:54N 56°46' E 007°48'512.4
2018-Jan-11 13:30N 56°50' E 007°54'612.1
2018-Jan-11 12:59N 56°54' E 008°01'611.9
2018-Jan-11 12:29N 56°59' E 008°09'611.9
2018-Jan-11 12:00N 57°03' E 008°15'612.0
2018-Jan-11 11:30N 57°08' E 008°23'612.3
2018-Jan-11 10:59N 57°11' E 008°32'7013.0
2018-Jan-11 05:37N 57°47' E 010°24'214.5
2018-Jan-11 05:31N 57°47' E 010°27'714.2
2018-Jan-11 05:00N 57°50' E 010°40'713.7
2018-Jan-11 04:30N 57°50' E 010°52'713.6
2018-Jan-11 04:00N 57°50' E 011°05'713.5
2018-Jan-11 03:30N 57°51' E 011°18'612.1
2018-Jan-11 03:00N 57°53' E 011°29'713.1
2018-Jan-11 02:30N 57°56' E 011°40'713.2
2018-Jan-11 02:00N 58°01' E 011°47'4 8.7
2018-Jan-11 01:30N 58°05' E 011°49'0 0.0
2018-Jan-10 12:43N 58°05' E 011°49'0 1.8
2018-Jan-10 12:30N 58°05' E 011°48'510.6
2018-Jan-10 12:00N 58°00' E 011°46'5 9.3
2018-Jan-10 11:28N 57°56' E 011°42'0 0.1
2018-Jan-10 10:55N 57°56' E 011°42'0 0.1
2018-Jan-10 10:28N 57°56' E 011°42'0 0.0
2018-Jan-10 09:58N 57°56' E 011°42'0 0.0
2018-Jan-10 09:28N 57°56' E 011°42'0 0.0
2018-Jan-10 08:58N 57°56' E 011°42'0 0.0
2018-Jan-10 08:28N 57°56' E 011°42'0 0.0
2018-Jan-10 07:58N 57°56' E 011°42'0 0.0
2018-Jan-10 07:28N 57°56' E 011°42'0 0.0
2018-Jan-10 06:58N 57°56' E 011°42'0 0.0
2018-Jan-10 06:28N 57°56' E 011°42'0 0.0
2018-Jan-10 05:58N 57°56' E 011°42'0 0.0
2018-Jan-10 05:28N 57°56' E 011°42'0 0.0
2018-Jan-10 04:58N 57°56' E 011°42'0 0.0
2018-Jan-10 04:28N 57°56' E 011°42'0 0.0
2018-Jan-10 03:58N 57°56' E 011°42'0 0.0
2018-Jan-10 03:28N 57°56' E 011°42'0 0.0
2018-Jan-10 02:58N 57°56' E 011°42'0 0.0
2018-Jan-10 02:28N 57°56' E 011°42'0 0.0
2018-Jan-10 01:58N 57°56' E 011°42'0 0.0
2018-Jan-10 01:28N 57°56' E 011°42'0 0.0
2018-Jan-10 00:58N 57°56' E 011°42'0 0.0
2018-Jan-10 00:28N 57°56' E 011°42'0 0.0
2018-Jan-09 23:58N 57°56' E 011°42'0 0.1
2018-Jan-09 23:28N 57°56' E 011°42'1 2.3
2018-Jan-09 23:00N 57°56' E 011°40'612.2
2018-Jan-09 22:30N 57°53' E 011°29'510.5
2018-Jan-09 22:00N 57°56' E 011°20'612.1
2018-Jan-09 21:30N 58°01' E 011°16'611.4
2018-Jan-09 21:00N 58°06' E 011°11'611.2
2018-Jan-09 20:30N 58°11' E 011°06'611.3
2018-Jan-09 20:00N 58°16' E 011°02'611.7
2018-Jan-09 19:30N 58°22' E 010°57'612.3
2018-Jan-09 19:00N 58°28' E 010°53'612.2
2018-Jan-09 18:30N 58°33' E 010°49'612.8
2018-Jan-09 18:00N 58°39' E 010°46'  
Track history (hours):
 
Tides and Currents Weather Stations Pressure Air Temp Water Temp Dewpoint Dewpoint Depression Visibility Wind Speed Wind Dir Waves Ship Positions

Stolt Auk

Last reported at 2018-Jan-19 17:51 UTC. Time now 2018-Jan-20 03:47 UTC.
Position N 53°38' E 004°51'.

Length 100 m; draft 6.3 m.

Type: Ship (hazmat cat B). MMSI: 235104739.

Date/timePositionNaut miles runAvg speedWind from/ knotsBaromVisibWave heightAir tempDewpointWater temp
2018-Jan-19 17:51N 53°38' E 004°51'512.9
2018-Jan-19 17:26N 53°33' E 004°48'613.1
2018-Jan-19 16:59N 53°28' E 004°44'1112.8
2018-Jan-19 16:10N 53°18' E 004°36'1212.7
2018-Jan-19 15:15N 53°08' E 004°27'312.8
2018-Jan-19 15:00N 53°05' E 004°24'712.0
2018-Jan-19 14:27N 52°60' E 004°20'511.4
2018-Jan-19 14:00N 52°55' E 004°17'511.1
2018-Jan-19 13:30N 52°50' E 004°13'2511.4
2018-Jan-19 11:21N 52°32' E 003°45'511.0
2018-Jan-19 10:54N 52°28' E 003°40'510.7
2018-Jan-19 10:29N 52°24' E 003°36'510.6
2018-Jan-19 09:59N 52°20' E 003°32'510.7
2018-Jan-19 09:30N 52°15' E 003°30'510.7
2018-Jan-19 09:00N 52°10' E 003°27'3410.3
2018-Jan-19 05:39N 51°35' E 003°24'212.9
2018-Jan-19 05:30N 51°33' E 003°25'713.3
2018-Jan-19 05:00N 51°28' E 003°31'4 8.6
2018-Jan-19 04:31N 51°26' E 003°37'510.3
2018-Jan-19 04:00N 51°23' E 003°44'510.9
2018-Jan-19 03:31N 51°21' E 003°52'510.0
2018-Jan-19 03:01N 51°24' E 003°57'3 6.1
2018-Jan-19 02:31N 51°25' E 004°02'4 7.7
2018-Jan-19 02:01N 51°22' E 004°07'4 7.5
2018-Jan-19 01:31N 51°22' E 004°13'3 6.0
2018-Jan-19 01:01N 51°21' E 004°17'0 0.0
2018-Jan-19 00:31N 51°21' E 004°17'0 0.1
2018-Jan-19 00:01N 51°21' E 004°17'1 1.8
2018-Jan-18 23:30N 51°20' E 004°18'1 2.1
2018-Jan-18 23:00N 51°19' E 004°18'  
2018-Jan-12 02:21N 54°29' E 004°59'513.3
2018-Jan-12 02:00N 54°33' E 005°04'1013.4
2018-Jan-12 01:17N 54°41' E 005°13'413.5
2018-Jan-12 00:59N 54°44' E 005°17'713.6
2018-Jan-12 00:30N 54°50' E 005°23'713.7
2018-Jan-12 00:00N 54°55' E 005°30'713.7
2018-Jan-11 23:29N 55°01' E 005°37'713.7
2018-Jan-11 22:59N 55°07' E 005°44'613.6
2018-Jan-11 22:30N 55°12' E 005°50'713.5
2018-Jan-11 22:00N 55°18' E 005°56'713.4
2018-Jan-11 21:29N 55°24' E 006°02'713.4
2018-Jan-11 20:59N 55°30' E 006°08'713.4
2018-Jan-11 20:29N 55°35' E 006°16'713.4
2018-Jan-11 19:59N 55°40' E 006°23'613.5
2018-Jan-11 19:30N 55°46' E 006°30'713.5
2018-Jan-11 18:59N 55°51' E 006°37'713.6
2018-Jan-11 18:29N 55°57' E 006°43'713.6
2018-Jan-11 17:59N 56°03' E 006°50'613.6
2018-Jan-11 17:30N 56°08' E 006°57'713.6
2018-Jan-11 17:00N 56°14' E 007°04'713.5
2018-Jan-11 16:30N 56°19' E 007°11'713.4
2018-Jan-11 16:00N 56°25' E 007°17'713.2
2018-Jan-11 15:29N 56°30' E 007°24'713.1
2018-Jan-11 14:59N 56°36' E 007°32'612.6
2018-Jan-11 14:29N 56°41' E 007°39'712.5
2018-Jan-11 13:54N 56°46' E 007°48'512.4
2018-Jan-11 13:30N 56°50' E 007°54'612.1
2018-Jan-11 12:59N 56°54' E 008°01'611.9
2018-Jan-11 12:29N 56°59' E 008°09'611.9
2018-Jan-11 12:00N 57°03' E 008°15'612.0
2018-Jan-11 11:30N 57°08' E 008°23'612.3
2018-Jan-11 10:59N 57°11' E 008°32'7013.0
2018-Jan-11 05:37N 57°47' E 010°24'214.5
2018-Jan-11 05:31N 57°47' E 010°27'714.2
2018-Jan-11 05:00N 57°50' E 010°40'713.7
2018-Jan-11 04:30N 57°50' E 010°52'713.6
2018-Jan-11 04:00N 57°50' E 011°05'713.5
2018-Jan-11 03:30N 57°51' E 011°18'612.1
2018-Jan-11 03:00N 57°53' E 011°29'713.1
2018-Jan-11 02:30N 57°56' E 011°40'713.2
2018-Jan-11 02:00N 58°01' E 011°47'4 8.7
2018-Jan-11 01:30N 58°05' E 011°49'0 0.0
2018-Jan-10 12:43N 58°05' E 011°49'0 1.8
2018-Jan-10 12:30N 58°05' E 011°48'510.6
2018-Jan-10 12:00N 58°00' E 011°46'5 9.3
2018-Jan-10 11:28N 57°56' E 011°42'0 0.1
2018-Jan-10 10:55N 57°56' E 011°42'0 0.1
2018-Jan-10 10:28N 57°56' E 011°42'0 0.0
2018-Jan-10 09:58N 57°56' E 011°42'0 0.0
2018-Jan-10 09:28N 57°56' E 011°42'0 0.0
2018-Jan-10 08:58N 57°56' E 011°42'0 0.0
2018-Jan-10 08:28N 57°56' E 011°42'0 0.0
2018-Jan-10 07:58N 57°56' E 011°42'0 0.0
2018-Jan-10 07:28N 57°56' E 011°42'0 0.0
2018-Jan-10 06:58N 57°56' E 011°42'0 0.0
2018-Jan-10 06:28N 57°56' E 011°42'0 0.0
2018-Jan-10 05:58N 57°56' E 011°42'0 0.0
2018-Jan-10 05:28N 57°56' E 011°42'0 0.0
2018-Jan-10 04:58N 57°56' E 011°42'0 0.0
2018-Jan-10 04:28N 57°56' E 011°42'0 0.0
2018-Jan-10 03:58N 57°56' E 011°42'0 0.0
2018-Jan-10 03:28N 57°56' E 011°42'0 0.0
2018-Jan-10 02:58N 57°56' E 011°42'0 0.0
2018-Jan-10 02:28N 57°56' E 011°42'0 0.0
2018-Jan-10 01:58N 57°56' E 011°42'0 0.0
2018-Jan-10 01:28N 57°56' E 011°42'0 0.0
2018-Jan-10 00:58N 57°56' E 011°42'0 0.0
2018-Jan-10 00:28N 57°56' E 011°42'0 0.0
2018-Jan-09 23:58N 57°56' E 011°42'0 0.1
2018-Jan-09 23:28N 57°56' E 011°42'1 2.3
2018-Jan-09 23:00N 57°56' E 011°40'612.2
2018-Jan-09 22:30N 57°53' E 011°29'510.5
2018-Jan-09 22:00N 57°56' E 011°20'612.1
2018-Jan-09 21:30N 58°01' E 011°16'611.4
2018-Jan-09 21:00N 58°06' E 011°11'611.2
2018-Jan-09 20:30N 58°11' E 011°06'611.3
2018-Jan-09 20:00N 58°16' E 011°02'611.7
2018-Jan-09 19:30N 58°22' E 010°57'612.3
2018-Jan-09 19:00N 58°28' E 010°53'612.2
2018-Jan-09 18:30N 58°33' E 010°49'612.8
2018-Jan-09 18:00N 58°39' E 010°46'  

Dump ship's entire track history